Jackson County Reynolds Field
KJXN : now visible

Airfield :











YOU CAN JOIN US ON...

 
LOGIN :

Register | Disclaimer

   EN    FR    IT 

 









Legend :    VFR   Marginal VFR   IFR   Intensive IFR   Very Intensive IFR
Visi :
Ceiling :
>= 8 km
>= 3000ft
5 to 8 km
1000 to 3000 ft
1500m to 5 km
500 to 1000 ft
800 to 1500m
200 to 500 ft
< 800m
< 200 ft
Symbols :   Thunderstorms  Fog  Heavy snow  Heavy precipitations  Wind > 20 kt






- Airport Elevation : 1001 ft


KJXN - Jackson County Reynolds Field

CURRENT METAR :
  • 012256Z 24007KT 10SM -RA CLR 21/18 A2992 RMK AO2 SLP128 P0000 T02110183

EXPIRED METARs :
  • 011556Z 22009KT 10SM BKN100 26/17 A2994 RMK AO2 SLP133 T02610167
  • 012156Z 22010KT 9SM -RA FEW045 SCT100 21/19 A2994 RMK AO2 SLP132 P0001 T02110189
  • 012056Z 22008KT 10SM -RA BKN060 BKN075 22/19 A2996 RMK AO2 LTG DSNT S AND SW SLP139 TCU SE-SW MOV E P0000 60014 T02170194 51010

TAF KJXN
Valid from the 01 at 21:00 until the 02 at 18:00 UTC


012123Z 0121/0218 24009KT P6SM -RA BKN060
FM012300 26010KT P6SM SCT060 BKN140 BKN250
FM020100 29005KT P6SM SKC
KZOB FIR / North America



MET'MAP, your aeronautical weather chart ! - Copyright ORBIFLY December 2007 - Disclaimer

ORBIFLY MET'MAP TEAM :

Programming & Development : Alexandra Zaïnal
Original concept : Baudouin d'Aumeries
Technical & hardware support : Manuel Goepfert
Assistance : Marc-Olivier Méhu




SOURCES & CREDITS :

   NOAA       Earth
Advisory